Details From KCLM - William R Fairchild Intl
To KBLI - Bellingham Intl
Flight Number -
Tags Generated
Created
Modified
Stats Distance 56 nm / 104 km
Max Altitude 0 ft / 0 m
Waypoints 2
Social Downloads 1
Likes 0
Share VATSIM

Download

Looking for another format? Having issues loading an existing format? Contact us
Advertisement - Login to hide

Notes

Generated

Route

KCLM KBLI

ID Type Via Altitude Latitude Longitude Leg Dist Tot Dist Heading (true) Name
O KCLM APT - 0 ft / 0 m 48.12657˚ -123.50476˚ - 0 nm - -
O KBLI APT - 0 ft / 0 m 48.80188˚ -122.53756˚ 55 nm 55 nm 43° / 44° -

Altitude Profile

Advertisement - Login to hide

KCLM

Details ICAO KCLM (CLM)
Name WILLIAM R FAIRCHILD INTL
Region United States
Timezone America/Los_Angeles (UTC-7.0)
Stats Elevation 291 ft / 89 m (AMSL)
Location 48.120829° -123.500070°
Runways 2
Magnetic Variation 15.987° E

METAR

KCLM 251453Z AUTO 31009KT 270V350 10SM CLR 12/05 A3007 RMK AO2 SLP182 T01220050 53006 $

Decode

TAF

TAF KCLM 251124Z 2512/2612 26008KT P6SM SCT060 FM260200 29014G24KT P6SM SCT060 FM261000 27012KT P6SM OVC022

Decode

Departure Runways

ID Width Length Bearing (true) Bearing (mag) Surface Threshold Offset Overrun Length
08 151 ft / 46 m 6,353 ft / 1,936 m 104.61° 88.62° Asphalt 0 ft / 0 m 0 ft / 0 m
13 49 ft / 15 m 3,244 ft / 989 m 147.64° 131.65° Asphalt 0 ft / 0 m 0 ft / 0 m
26 151 ft / 46 m 6,353 ft / 1,936 m 284.63° 268.64° Asphalt 1,355 ft / 413 m 0 ft / 0 m
31 49 ft / 15 m 3,244 ft / 989 m 327.64° 311.65° Asphalt 0 ft / 0 m 0 ft / 0 m

KBLI

Details ICAO KBLI (BLI)
Name BELLINGHAM INTL
Region United States
Timezone America/Los_Angeles (UTC-7.0)
Stats Elevation 170 ft / 52 m (AMSL)
Location 48.792615° -122.537535°
Runways 1
Magnetic Variation 15.985° E

METAR

KBLI 251453Z 17009KT 10SM BKN075 12/07 A3002 RMK AO2 SLP173 T01220072 53005

Decode

TAF

KBLI 251124Z 2512/2612 18006KT P6SM OVC060 FM251600 18006KT P6SM SCT060 FM260300 19012G18KT P6SM SCT060 BKN200 FM261100 19008KT P6SM BKN035

Decode

Destination Runways

ID Width Length Bearing (true) Bearing (mag) Surface Threshold Offset Overrun Length
16 151 ft / 46 m 6,755 ft / 2,059 m 179.88° 163.89° Asphalt 0 ft / 0 m 0 ft / 0 m
34 151 ft / 46 m 6,755 ft / 2,059 m 359.88° 343.89° Asphalt 0 ft / 0 m 0 ft / 0 m

Approach Navaids

Runway Type Ident Frequency Range Bearing (true) Bearing (mag) Slope Elevation
16 Localiser IBLI 108.50 MHz 18 nm / 33 km 179.83° 163.84° - 152 ft / 46 m (AMSL)
16 Glidescope IBLI 108.50 MHz 10 nm / 19 km 179.88° 163.89° 3.00° 154 ft / 47 m (AMSL)